createdAt,value
2017-12-10T00:00:16.637Z,98.25
2017-12-10T00:01:16.614Z,98.06
2017-12-10T00:02:16.594Z,97.97
2017-12-10T00:03:16.578Z,98.35
2017-12-10T00:04:16.571Z,98.63
2017-12-10T00:05:16.555Z,98.63
2017-12-10T00:06:16.547Z,98.35
2017-12-10T00:07:16.528Z,98.16
2017-12-10T00:08:16.512Z,98.16
2017-12-10T00:09:16.500Z,98.25
2017-12-10T00:10:16.478Z,98.25
2017-12-10T00:11:16.469Z,98.16
2017-12-10T00:12:16.453Z,98.63
2017-12-10T00:13:16.442Z,98.16
2017-12-10T00:14:16.443Z,97.78
2017-12-10T00:15:16.405Z,97.78
2017-12-10T00:16:16.393Z,98.44
2017-12-10T00:17:16.394Z,98.25
2017-12-10T00:18:16.373Z,98.25
2017-12-10T00:19:16.099Z,97.78
2017-12-10T00:20:16.344Z,97.78
2017-12-10T00:21:16.330Z,98.54
2017-12-10T00:22:16.309Z,98.25
2017-12-10T00:23:16.305Z,97.97
2017-12-10T00:24:16.281Z,98.16
2017-12-10T00:25:16.273Z,97.97
2017-12-10T00:26:16.251Z,98.54
2017-12-10T00:27:16.234Z,98.16
2017-12-10T00:28:16.229Z,97.78
2017-12-10T00:29:16.210Z,97.78
2017-12-10T00:30:15.945Z,97.97
2017-12-10T00:31:16.187Z,98.16
2017-12-10T00:32:16.169Z,98.35
2017-12-10T00:33:16.158Z,98.16
2017-12-10T00:34:16.147Z,98.54
2017-12-10T00:35:16.201Z,97.68
2017-12-10T00:36:16.115Z,97.78
2017-12-10T00:37:16.100Z,97.97
2017-12-10T00:38:16.091Z,98.54
2017-12-10T00:39:16.069Z,98.35
2017-12-10T00:40:16.061Z,98.06
2017-12-10T00:41:16.051Z,98.35
2017-12-10T00:42:15.773Z,98.25
2017-12-10T00:43:16.018Z,98.06
2017-12-10T00:44:16.002Z,98.06
2017-12-10T00:45:15.992Z,98.72
2017-12-10T00:46:15.974Z,98.25
2017-12-10T00:47:16.005Z,98.44
2017-12-10T00:48:15.948Z,98.25
2017-12-10T00:49:15.934Z,98.16
2017-12-10T00:50:15.664Z,98.16
2017-12-10T00:51:15.910Z,98.16
2017-12-10T00:52:15.890Z,98.06
2017-12-10T00:53:15.870Z,97.97
2017-12-10T00:54:15.849Z,98.06
2017-12-10T00:55:15.841Z,98.82
2017-12-10T00:56:15.826Z,98.25
2017-12-10T00:57:15.833Z,98.25
2017-12-10T00:58:15.815Z,98.72
2017-12-10T00:59:15.791Z,98.44
2017-12-10T01:00:15.515Z,98.35
2017-12-10T01:01:15.767Z,98.72
2017-12-10T01:02:15.742Z,99.1
2017-12-10T01:03:15.733Z,99.2
2017-12-10T01:04:15.713Z,98.82
2017-12-10T01:05:15.703Z,98.35
2017-12-10T01:06:15.697Z,98.44
2017-12-10T01:07:15.669Z,98.54
2017-12-10T01:08:15.665Z,98.63
2017-12-10T01:09:15.642Z,98.44
2017-12-10T01:10:15.369Z,98.54
2017-12-10T01:11:15.616Z,98.25
2017-12-10T01:12:15.596Z,97.97
2017-12-10T01:13:15.586Z,98.06
2017-12-10T01:14:15.569Z,98.54
2017-12-10T01:15:15.557Z,98.25
2017-12-10T01:16:15.299Z,98.16
2017-12-10T01:17:15.532Z,98.72
2017-12-10T01:18:15.513Z,98.91
2017-12-10T01:19:15.499Z,98.16
2017-12-10T01:20:15.491Z,98.63
2017-12-10T01:21:15.521Z,98.54
2017-12-10T01:22:15.458Z,98.35
2017-12-10T01:23:15.185Z,98.91
2017-12-10T01:24:15.426Z,98.54
2017-12-10T01:25:15.409Z,98.54
2017-12-10T01:26:15.399Z,98.25
2017-12-10T01:27:15.387Z,98.54
2017-12-10T01:28:15.384Z,98.63
2017-12-10T01:29:15.366Z,98.91
2017-12-10T01:30:15.348Z,97.49
2017-12-10T01:31:15.332Z,97.68
2017-12-10T01:32:15.310Z,97.68
2017-12-10T01:33:15.303Z,98.25
2017-12-10T01:34:15.293Z,98.16
2017-12-10T01:35:15.333Z,98.16
2017-12-10T01:36:15.260Z,98.25
2017-12-10T01:37:15.250Z,98.25
2017-12-10T01:38:15.231Z,97.97
2017-12-10T01:39:15.220Z,98.06
2017-12-10T01:40:15.199Z,98.25
2017-12-10T01:41:15.194Z,98.06
2017-12-10T01:42:15.222Z,98.44
2017-12-10T01:43:14.906Z,98.35
2017-12-10T01:44:15.150Z,98.54
2017-12-10T01:45:15.123Z,97.87
2017-12-10T01:46:15.119Z,97.87
2017-12-10T01:47:15.107Z,97.59
2017-12-10T01:48:15.099Z,97.68
2017-12-10T01:49:15.075Z,97.97
2017-12-10T01:50:15.059Z,97.68
2017-12-10T01:51:15.043Z,97.97
2017-12-10T01:52:15.026Z,97.97
2017-12-10T01:53:15.009Z,97.68
2017-12-10T01:54:15.057Z,98.54
2017-12-10T01:55:14.982Z,97.78
2017-12-10T01:56:14.965Z,97.78
2017-12-10T01:57:14.696Z,97.87
2017-12-10T01:58:14.948Z,97.49
2017-12-10T01:59:14.919Z,97.68
2017-12-10T02:00:14.917Z,97.21
2017-12-10T02:01:14.903Z,97.11
2017-12-10T02:02:14.890Z,97.16
2017-12-10T02:03:14.878Z,97.3
2017-12-10T02:04:14.849Z,96.97
2017-12-10T02:05:14.888Z,97.35
2017-12-10T02:06:14.828Z,96.78
2017-12-10T02:07:14.812Z,96.59
2017-12-10T02:08:14.793Z,97.16
2017-12-10T02:09:14.790Z,96.97
2017-12-10T02:10:14.776Z,97.44
2017-12-10T02:11:14.749Z,97.25
2017-12-10T02:12:14.484Z,97.44
2017-12-10T02:13:14.732Z,97.06
2017-12-10T02:14:14.717Z,96.78
2017-12-10T02:15:14.692Z,97.16
2017-12-10T02:16:14.681Z,96.97
2017-12-10T02:17:14.676Z,96.21
2017-12-10T02:18:14.647Z,95.83
2017-12-10T02:19:14.646Z,96.12
2017-12-10T02:20:14.618Z,96.31
2017-12-10T02:21:14.605Z,96.21
2017-12-10T02:22:14.602Z,96.21
2017-12-10T02:23:14.582Z,95.93
2017-12-10T02:24:14.571Z,95.74
2017-12-10T02:25:14.555Z,96.5
2017-12-10T02:26:14.542Z,96.4
2017-12-10T02:27:14.517Z,96.4
2017-12-10T02:28:14.508Z,96.59
2017-12-10T02:29:14.496Z,96.5
2017-12-10T02:30:14.481Z,96.31
2017-12-10T02:31:14.458Z,96.5
2017-12-10T02:32:14.453Z,96.59
2017-12-10T02:33:14.441Z,96.59
2017-12-10T02:34:14.422Z,96.21
2017-12-10T02:35:14.414Z,96.59
2017-12-10T02:36:14.397Z,96.4
2017-12-10T02:37:14.380Z,96.88
2017-12-10T02:38:14.362Z,96.5
2017-12-10T02:39:14.400Z,96.78
2017-12-10T02:40:14.336Z,97.16
2017-12-10T02:41:14.325Z,96.4
2017-12-10T02:42:14.318Z,95.83
2017-12-10T02:43:14.033Z,95.55
2017-12-10T02:44:14.017Z,95.36
2017-12-10T02:45:14.265Z,95.55
2017-12-10T02:46:14.041Z,95.93
2017-12-10T02:47:14.237Z,95.64
2017-12-10T02:48:14.212Z,95.55
2017-12-10T02:49:14.200Z,95.45
2017-12-10T02:50:14.192Z,95.74
2017-12-10T02:51:14.167Z,95.55
2017-12-10T02:52:14.166Z,95.93
2017-12-10T02:53:14.143Z,96.12
2017-12-10T02:54:14.135Z,95.45
2017-12-10T02:55:14.107Z,95.64
2017-12-10T02:56:13.844Z,96.4
2017-12-10T02:57:14.147Z,95.93
2017-12-10T02:58:14.074Z,96.02
2017-12-10T02:59:14.057Z,96.59
2017-12-10T03:00:14.043Z,95.93
2017-12-10T03:01:14.020Z,96.21
2017-12-10T03:02:14.013Z,96.69
2017-12-10T03:03:13.998Z,96.97
2017-12-10T03:04:13.975Z,96.97
2017-12-10T03:05:13.960Z,96.59
2017-12-10T03:06:13.946Z,96.5
2017-12-10T03:07:13.939Z,96.31
2017-12-10T03:08:13.930Z,95.83
2017-12-10T03:09:13.905Z,96.02
2017-12-10T03:10:13.635Z,96.31
2017-12-10T03:11:13.880Z,96.02
2017-12-10T03:12:13.868Z,95.97
2017-12-10T03:13:13.846Z,96.35
2017-12-10T03:14:13.831Z,96.16
2017-12-10T03:15:13.815Z,96.35
2017-12-10T03:16:13.798Z,96.73
2017-12-10T03:17:13.789Z,96.83
2017-12-10T03:18:13.764Z,96.64
2017-12-10T03:19:13.752Z,96.83
2017-12-10T03:20:13.740Z,96.83
2017-12-10T03:21:13.721Z,96.45
2017-12-10T03:22:13.713Z,96.92
2017-12-10T03:23:13.698Z,96.16
2017-12-10T03:24:13.686Z,96.64
2017-12-10T03:25:13.414Z,96.83
2017-12-10T03:26:13.657Z,97.02
2017-12-10T03:27:13.635Z,97.02
2017-12-10T03:28:13.617Z,97.02
2017-12-10T03:29:13.604Z,97.11
2017-12-10T03:30:13.611Z,97.39
2017-12-10T03:31:13.575Z,97.11
2017-12-10T03:32:13.567Z,97.87
2017-12-10T03:33:13.552Z,97.87
2017-12-10T03:34:13.534Z,97.49
2017-12-10T03:35:13.533Z,97.2
2017-12-10T03:36:13.497Z,95.97
2017-12-10T03:37:13.489Z,96.45
2017-12-10T03:38:13.474Z,96.07
2017-12-10T03:39:13.454Z,95.88
2017-12-10T03:40:13.447Z,96.16
2017-12-10T03:41:13.420Z,95.88
2017-12-10T03:42:13.415Z,96.16
2017-12-10T03:43:13.392Z,96.54
2017-12-10T03:44:13.383Z,96.83
2017-12-10T03:45:13.360Z,96.45
2017-12-10T03:46:13.354Z,96.54
2017-12-10T03:47:13.334Z,95.59
2017-12-10T03:48:13.314Z,96.07
2017-12-10T03:49:13.313Z,96.07
2017-12-10T03:50:13.287Z,95.21
2017-12-10T03:51:13.281Z,95.12
2017-12-10T03:52:13.259Z,95.12
2017-12-10T03:53:12.989Z,95.59
2017-12-10T03:54:13.226Z,95.5
2017-12-10T03:55:13.220Z,95.59
2017-12-10T03:56:13.197Z,95.97
2017-12-10T03:57:13.208Z,95.97
2017-12-10T03:58:13.173Z,95.97
2017-12-10T03:59:13.148Z,95.78
2017-12-10T04:00:13.145Z,95.97
2017-12-10T04:01:13.127Z,95.88
2017-12-10T04:02:13.107Z,96.26
2017-12-10T04:03:13.098Z,95.4
2017-12-10T04:04:13.084Z,96.07
2017-12-10T04:05:13.071Z,95.4
2017-12-10T04:06:13.044Z,95.5
2017-12-10T04:07:13.031Z,94.65
2017-12-10T04:08:13.025Z,95.21
2017-12-10T04:09:12.999Z,95.31
2017-12-10T04:10:12.986Z,95.59
2017-12-10T04:11:12.973Z,94.46
2017-12-10T04:12:12.963Z,94.65
2017-12-10T04:13:12.948Z,95.31
2017-12-10T04:14:12.920Z,95.21
2017-12-10T04:15:12.921Z,95.4
2017-12-10T04:16:12.900Z,95.59
2017-12-10T04:17:12.880Z,95.4
2017-12-10T04:18:12.868Z,95.5
2017-12-10T04:19:12.856Z,96.26
2017-12-10T04:20:12.840Z,96.16
2017-12-10T04:21:12.828Z,95.97
2017-12-10T04:22:12.810Z,95.4
2017-12-10T04:23:12.800Z,95.4
2017-12-10T04:24:12.770Z,94.6
2017-12-10T04:25:12.798Z,94.51
2017-12-10T04:26:12.740Z,95.45
2017-12-10T04:27:12.727Z,95.07
2017-12-10T04:28:12.721Z,95.45
2017-12-10T04:29:12.695Z,96.21
2017-12-10T04:30:12.693Z,95.74
2017-12-10T04:31:12.673Z,95.83
2017-12-10T04:32:12.652Z,96.21
2017-12-10T04:33:12.633Z,95.93
2017-12-10T04:34:12.619Z,96.21
2017-12-10T04:35:12.611Z,96.02
2017-12-10T04:36:12.587Z,95.45
2017-12-10T04:37:12.571Z,96.21
2017-12-10T04:38:12.556Z,95.93
2017-12-10T04:39:12.551Z,95.55
2017-12-10T04:40:12.536Z,95.74
2017-12-10T04:41:12.516Z,96.12
2017-12-10T04:42:12.494Z,95.93
2017-12-10T04:43:12.491Z,95.93
2017-12-10T04:44:12.462Z,96.31
2017-12-10T04:45:12.456Z,96.21
2017-12-10T04:46:12.436Z,96.31
2017-12-10T04:47:12.422Z,95.74
2017-12-10T04:48:12.409Z,96.31
2017-12-10T04:49:12.133Z,95.55
2017-12-10T04:50:12.376Z,95.83
2017-12-10T04:51:12.354Z,95.74
2017-12-10T04:52:12.341Z,95.83
2017-12-10T04:53:12.323Z,96.4
2017-12-10T04:54:12.308Z,96.12
2017-12-10T04:55:12.294Z,96.59
2017-12-10T04:56:12.026Z,97.06
2017-12-10T04:57:12.261Z,97.25
2017-12-10T04:58:12.254Z,97.25
2017-12-10T04:59:12.232Z,96.4
2017-12-10T05:00:12.221Z,96.31
2017-12-10T05:01:12.210Z,96.02
2017-12-10T05:02:12.181Z,95.55
2017-12-10T05:03:12.167Z,96.21
2017-12-10T05:04:12.149Z,96.21
2017-12-10T05:05:12.139Z,96.12
2017-12-10T05:06:11.862Z,95.83
2017-12-10T05:07:12.114Z,96.12
2017-12-10T05:08:12.086Z,96.69
2017-12-10T05:09:12.075Z,96.59
2017-12-10T05:10:12.059Z,95.74
2017-12-10T05:11:12.042Z,96.21
2017-12-10T05:12:12.023Z,95.93
2017-12-10T05:13:12.021Z,96.02
2017-12-10T05:14:11.738Z,96.5
2017-12-10T05:15:11.986Z,96.02
2017-12-10T05:16:11.970Z,96.02
2017-12-10T05:17:11.942Z,95.45
2017-12-10T05:18:11.936Z,95.83
2017-12-10T05:19:11.912Z,95.45
2017-12-10T05:20:11.898Z,95.26
2017-12-10T05:21:11.886Z,95.55
2017-12-10T05:22:11.869Z,96.02
2017-12-10T05:23:11.599Z,96.02
2017-12-10T05:24:11.846Z,95.83
2017-12-10T05:25:11.571Z,95.64
2017-12-10T05:26:11.813Z,95.83
2017-12-10T05:27:11.790Z,95.83
2017-12-10T05:28:11.776Z,96.02
2017-12-10T05:29:11.764Z,96.02
2017-12-10T05:30:11.486Z,95.83
2017-12-10T05:31:11.732Z,96.12
2017-12-10T05:32:11.716Z,95.36
2017-12-10T05:33:11.701Z,95.17
2017-12-10T05:34:11.685Z,94.89
2017-12-10T05:35:11.663Z,95.07
2017-12-10T05:36:11.717Z,95.45
2017-12-10T05:37:11.645Z,95.83
2017-12-10T05:38:11.613Z,96.21
2017-12-10T05:39:11.601Z,95.74
2017-12-10T05:40:11.595Z,95.83
2017-12-10T05:41:11.581Z,95.07
2017-12-10T05:42:11.557Z,95.36
2017-12-10T05:43:11.545Z,95.55
2017-12-10T05:44:11.527Z,95.93
2017-12-10T05:45:11.512Z,95.17
2017-12-10T05:46:11.489Z,95.17
2017-12-10T05:47:11.481Z,95.55
2017-12-10T05:48:11.469Z,95.93
2017-12-10T05:49:11.451Z,95.83
2017-12-10T05:50:11.429Z,96.21
2017-12-10T05:51:11.414Z,96.02
2017-12-10T05:52:11.396Z,95.83
2017-12-10T05:53:11.381Z,95.83
2017-12-10T05:54:11.365Z,96.12
2017-12-10T05:55:11.601Z,96.31
2017-12-10T05:56:11.347Z,96.31
2017-12-10T05:57:11.319Z,96.4
2017-12-10T05:58:11.304Z,95.93
2017-12-10T05:59:11.287Z,96.31
2017-12-10T06:00:11.268Z,96.78
2017-12-10T06:01:11.252Z,96.97
2017-12-10T06:02:11.247Z,96.97
2017-12-10T06:03:11.222Z,96.59
2017-12-10T06:04:11.206Z,96.31
2017-12-10T06:05:11.190Z,96.69
2017-12-10T06:06:11.176Z,96.97
2017-12-10T06:07:11.164Z,96.97
2017-12-10T06:08:11.150Z,96.88
2017-12-10T06:09:10.874Z,96.88
2017-12-10T06:10:11.121Z,96.97
2017-12-10T06:11:10.844Z,96.97
2017-12-10T06:12:10.827Z,96.97
2017-12-10T06:13:11.074Z,95.93
2017-12-10T06:14:10.798Z,96.12
2017-12-10T06:15:11.037Z,96.69
2017-12-10T06:16:11.021Z,96.97
2017-12-10T06:17:11.012Z,96.97
2017-12-10T06:18:10.993Z,96.97
2017-12-10T06:19:10.711Z,97.82
2017-12-10T06:20:10.959Z,96.88
2017-12-10T06:21:10.950Z,97.06
2017-12-10T06:22:10.929Z,96.97
2017-12-10T06:23:10.903Z,97.25
2017-12-10T06:24:10.895Z,97.25
2017-12-10T06:25:10.878Z,96.88
2017-12-10T06:26:10.605Z,96.12
2017-12-10T06:27:10.847Z,96.5
2017-12-10T06:28:10.567Z,96.54
2017-12-10T06:29:10.823Z,96.5
2017-12-10T06:30:11.203Z,96.69
2017-12-10T06:31:10.787Z,96.88
2017-12-10T06:32:10.765Z,97.25
2017-12-10T06:33:10.745Z,97.34
2017-12-10T06:34:10.738Z,97.16
2017-12-10T06:35:10.795Z,97.44
2017-12-10T06:36:10.707Z,96.88
2017-12-10T06:37:10.688Z,96.97
2017-12-10T06:38:10.675Z,96.97
2017-12-10T06:39:10.647Z,97.2
2017-12-10T06:40:10.640Z,97.25
2017-12-10T06:41:10.614Z,97.11
2017-12-10T06:42:10.597Z,96.97
2017-12-10T06:43:10.654Z,96.69
2017-12-10T06:44:10.569Z,97.06
2017-12-10T06:45:10.549Z,96.88
2017-12-10T06:46:10.535Z,96.97
2017-12-10T06:47:10.527Z,96.97
2017-12-10T06:48:10.501Z,97.44
2017-12-10T06:49:10.488Z,97.44
2017-12-10T06:50:10.483Z,97.16
2017-12-10T06:51:10.467Z,97.25
2017-12-10T06:52:10.447Z,97.06
2017-12-10T06:53:10.431Z,96.88
2017-12-10T06:54:10.414Z,97.06
2017-12-10T06:55:10.392Z,96.97
2017-12-10T06:56:10.449Z,96.97
2017-12-10T06:57:10.369Z,97.06
2017-12-10T06:58:10.344Z,97.16
2017-12-10T06:59:10.335Z,96.88
2017-12-10T07:00:10.316Z,96.97
2017-12-10T07:01:10.302Z,96.4
2017-12-10T07:02:10.028Z,96.12
2017-12-10T07:03:10.266Z,96.31
2017-12-10T07:04:10.264Z,95.55
2017-12-10T07:05:10.233Z,95.93
2017-12-10T07:06:10.219Z,95.93
2017-12-10T07:07:10.204Z,96.4
2017-12-10T07:08:10.191Z,95.83
2017-12-10T07:09:10.185Z,96.12
2017-12-10T07:10:10.156Z,96.21
2017-12-10T07:11:09.885Z,96.31
2017-12-10T07:12:10.129Z,95.83
2017-12-10T07:13:10.114Z,95.74
2017-12-10T07:14:10.101Z,95.93
2017-12-10T07:15:10.076Z,96.31
2017-12-10T07:16:10.064Z,95.93
2017-12-10T07:17:10.039Z,95.83
2017-12-10T07:18:10.031Z,96.02
2017-12-10T07:19:10.023Z,96.4
2017-12-10T07:20:10.002Z,96.21
2017-12-10T07:21:09.982Z,95.93
2017-12-10T07:22:09.961Z,95.74
2017-12-10T07:23:09.951Z,96.12
2017-12-10T07:24:09.941Z,95.83
2017-12-10T07:25:09.667Z,96.02
2017-12-10T07:26:09.896Z,96.02
2017-12-10T07:27:09.897Z,96.12
2017-12-10T07:28:09.874Z,96.21
2017-12-10T07:29:09.857Z,96.88
2017-12-10T07:30:09.849Z,96.12
2017-12-10T07:31:09.832Z,96.31
2017-12-10T07:32:09.823Z,96.5
2017-12-10T07:33:09.791Z,96.5
2017-12-10T07:34:09.779Z,96.5
2017-12-10T07:35:09.771Z,96.31
2017-12-10T07:36:09.752Z,96.59
2017-12-10T07:37:09.737Z,96.59
2017-12-10T07:38:09.720Z,96.12
2017-12-10T07:39:09.705Z,96.4
2017-12-10T07:40:09.689Z,96.5
2017-12-10T07:41:09.671Z,96.5
2017-12-10T07:42:09.729Z,96.12
2017-12-10T07:43:09.638Z,96.21
2017-12-10T07:44:09.627Z,96.21
2017-12-10T07:45:09.364Z,96.5
2017-12-10T07:46:09.597Z,97.25
2017-12-10T07:47:09.586Z,96.88
2017-12-10T07:48:09.562Z,97.34
2017-12-10T07:49:09.541Z,97.16
2017-12-10T07:50:09.275Z,96.69
2017-12-10T07:51:09.517Z,96.69
2017-12-10T07:52:09.499Z,96.97
2017-12-10T07:53:09.485Z,97.44
2017-12-10T07:54:09.208Z,97.44
2017-12-10T07:55:09.456Z,97.25
2017-12-10T07:56:09.181Z,96.97
2017-12-10T07:57:09.164Z,97.06
2017-12-10T07:58:09.412Z,97.34
2017-12-10T07:59:09.393Z,97.34
2017-12-10T08:00:09.382Z,97.25
2017-12-10T08:01:09.355Z,97.34
2017-12-10T08:02:09.347Z,97.06
2017-12-10T08:03:09.330Z,97.06
2017-12-10T08:04:09.315Z,97.06
2017-12-10T08:05:09.296Z,97.34
2017-12-10T08:06:09.281Z,96.97
2017-12-10T08:07:09.015Z,97.25
2017-12-10T08:08:09.245Z,97.06
2017-12-10T08:09:09.227Z,96.5
2017-12-10T08:10:09.212Z,96.5
2017-12-10T08:11:08.947Z,96.12
2017-12-10T08:12:09.195Z,96.12
2017-12-10T08:13:09.177Z,96.12
2017-12-10T08:14:09.160Z,96.31
2017-12-10T08:15:09.140Z,96.5
2017-12-10T08:16:09.136Z,96.54
2017-12-10T08:17:09.117Z,96.92
2017-12-10T08:18:09.092Z,97.11
2017-12-10T08:19:09.079Z,97.2
2017-12-10T08:20:09.066Z,94.65
2017-12-10T08:21:09.047Z,94.56
2017-12-10T08:22:08.785Z,94.65
2017-12-10T08:23:08.768Z,95.4
2017-12-10T08:24:08.755Z,95.31
2017-12-10T08:25:08.999Z,96.07
2017-12-10T08:26:08.971Z,94.93
2017-12-10T08:27:08.974Z,94.37
2017-12-10T08:28:08.938Z,94.08
2017-12-10T08:29:08.930Z,93.89
2017-12-10T08:30:08.914Z,93.89
2017-12-10T08:31:08.912Z,93.7
2017-12-10T08:32:08.951Z,93.13
2017-12-10T08:33:08.877Z,93.13
2017-12-10T08:34:08.867Z,94.18
2017-12-10T08:35:08.844Z,94.08
2017-12-10T08:36:08.568Z,93.27
2017-12-10T08:37:08.820Z,93.08
2017-12-10T08:38:08.812Z,93.56
2017-12-10T08:39:08.791Z,94.04
2017-12-10T08:40:08.772Z,93.18
2017-12-10T08:41:08.755Z,93.08
2017-12-10T08:42:08.746Z,92.99
2017-12-10T08:43:08.729Z,92.43
2017-12-10T08:44:08.716Z,91.86
2017-12-10T08:45:08.690Z,91.76
2017-12-10T08:46:08.676Z,91.95
2017-12-10T08:47:08.665Z,91.67
2017-12-10T08:48:08.661Z,92.05
2017-12-10T08:49:08.637Z,92.52
2017-12-10T08:50:08.627Z,92.33
2017-12-10T08:51:08.603Z,92.43
2017-12-10T08:52:08.604Z,92.71
2017-12-10T08:53:08.577Z,93.37
2017-12-10T08:54:08.562Z,93.37
2017-12-10T08:55:08.550Z,92.99
2017-12-10T08:56:08.534Z,93.65
2017-12-10T08:57:08.522Z,93.27
2017-12-10T08:58:08.503Z,92.9
2017-12-10T08:59:08.498Z,92.24
2017-12-10T09:00:08.472Z,92.14
2017-12-10T09:01:08.504Z,92.33
2017-12-10T09:02:08.454Z,93.08
2017-12-10T09:03:08.457Z,93.84
2017-12-10T09:04:08.415Z,94.23
2017-12-10T09:05:08.425Z,93.56
2017-12-10T09:06:08.415Z,93.56
2017-12-10T09:07:08.382Z,91.67
2017-12-10T09:08:08.102Z,92.05
2017-12-10T09:09:08.351Z,91.76
2017-12-10T09:10:08.089Z,91.95
2017-12-10T09:11:08.315Z,92.71
2017-12-10T09:12:08.302Z,92.9
2017-12-10T09:13:08.287Z,92.9
2017-12-10T09:14:08.275Z,92.99
2017-12-10T09:15:08.258Z,93.27
2017-12-10T09:16:08.249Z,92.9
2017-12-10T09:17:08.242Z,92.99
2017-12-10T09:18:08.221Z,92.52
2017-12-10T09:19:08.216Z,92.14
2017-12-10T09:20:08.183Z,92.05
2017-12-10T09:21:08.179Z,91.29
2017-12-10T09:22:08.163Z,91.62
2017-12-10T09:23:08.150Z,91.76
2017-12-10T09:24:07.869Z,91.76
2017-12-10T09:25:08.110Z,91.62
2017-12-10T09:26:07.851Z,91.91
2017-12-10T09:27:08.091Z,92.29
2017-12-10T09:28:07.818Z,92.94
2017-12-10T09:29:08.052Z,92.29
2017-12-10T09:30:08.085Z,93.42
2017-12-10T09:31:08.024Z,92.19
2017-12-10T09:32:07.762Z,91.81
2017-12-10T09:33:08.001Z,91.81
2017-12-10T09:34:07.991Z,92
2017-12-10T09:35:07.969Z,92.1
2017-12-10T09:36:07.952Z,91.34
2017-12-10T09:37:07.955Z,90.67
2017-12-10T09:38:07.673Z,91.34
2017-12-10T09:39:07.655Z,91.62
2017-12-10T09:40:07.900Z,91.53
2017-12-10T09:41:07.913Z,91.72
2017-12-10T09:42:07.866Z,91.81
2017-12-10T09:43:07.849Z,91.91
2017-12-10T09:44:07.845Z,92.29
2017-12-10T09:45:07.576Z,92.85
2017-12-10T09:46:07.844Z,93.04
2017-12-10T09:47:07.797Z,93.32
2017-12-10T09:48:07.523Z,92.94
2017-12-10T09:49:07.761Z,92.29
2017-12-10T09:50:07.744Z,92.66
2017-12-10T09:51:07.733Z,92.85
2017-12-10T09:52:07.727Z,93.13
2017-12-10T09:53:07.701Z,93.23
2017-12-10T09:54:07.686Z,93.32
2017-12-10T09:55:07.672Z,93.89
2017-12-10T09:56:07.652Z,93.8
2017-12-10T09:57:07.650Z,93.61
2017-12-10T09:58:07.623Z,94.27
2017-12-10T09:59:07.622Z,93.23
2017-12-10T10:00:07.600Z,93.8
2017-12-10T10:01:07.601Z,93.7
2017-12-10T10:02:07.562Z,94.37
2017-12-10T10:03:07.563Z,93.8
2017-12-10T10:04:07.543Z,93.42
2017-12-10T10:05:07.522Z,93.04
2017-12-10T10:06:07.513Z,93.23
2017-12-10T10:07:07.495Z,93.7
2017-12-10T10:08:07.480Z,92.76
2017-12-10T10:09:07.473Z,93.13
2017-12-10T10:10:07.443Z,93.13
2017-12-10T10:11:07.435Z,92.66
2017-12-10T10:12:07.431Z,92.66
2017-12-10T10:13:07.399Z,93.23
2017-12-10T10:14:07.385Z,92.94
2017-12-10T10:15:07.378Z,93.04
2017-12-10T10:16:07.363Z,92.19
2017-12-10T10:17:07.335Z,92.1
2017-12-10T10:18:07.346Z,92.85
2017-12-10T10:19:07.308Z,92.38
2017-12-10T10:20:07.305Z,92.29
2017-12-10T10:21:07.283Z,92
2017-12-10T10:22:07.011Z,91.72
2017-12-10T10:23:07.287Z,92.57
2017-12-10T10:24:06.986Z,93.23
2017-12-10T10:25:06.973Z,93.42
2017-12-10T10:26:07.245Z,93.99
2017-12-10T10:27:07.193Z,94.08
2017-12-10T10:28:07.183Z,93.61
2017-12-10T10:29:07.164Z,93.99
2017-12-10T10:30:07.145Z,93.99
2017-12-10T10:31:07.140Z,93.04
2017-12-10T10:32:07.121Z,92.71
2017-12-10T10:33:07.099Z,93.18
2017-12-10T10:34:07.084Z,91.48
2017-12-10T10:35:06.816Z,92.05
2017-12-10T10:36:07.062Z,91.38
2017-12-10T10:37:07.051Z,91.57
2017-12-10T10:38:07.038Z,91.95
2017-12-10T10:39:07.022Z,92.05
2017-12-10T10:40:07.003Z,91.95
2017-12-10T10:41:06.997Z,91.57
2017-12-10T10:42:06.969Z,91.57
2017-12-10T10:43:06.972Z,90.72
2017-12-10T10:44:06.943Z,90.34
2017-12-10T10:45:06.936Z,90.06
2017-12-10T10:46:06.919Z,89.68
2017-12-10T10:47:06.910Z,89.96
2017-12-10T10:48:06.628Z,90.06
2017-12-10T10:49:06.875Z,90.06
2017-12-10T10:50:06.605Z,89.39
2017-12-10T10:51:06.843Z,89.49
2017-12-10T10:52:06.825Z,90.06
2017-12-10T10:53:06.821Z,90.34
2017-12-10T10:54:06.811Z,90.34
2017-12-10T10:55:06.793Z,89.58
2017-12-10T10:56:06.780Z,89.01
2017-12-10T10:57:06.760Z,88.35
2017-12-10T10:58:06.751Z,89.01
2017-12-10T10:59:06.474Z,89.39
2017-12-10T11:00:06.725Z,89.58
2017-12-10T11:01:06.468Z,89.96
2017-12-10T11:02:06.695Z,90.25
2017-12-10T11:03:06.421Z,90.53
2017-12-10T11:04:06.660Z,90.44
2017-12-10T11:05:06.643Z,90.15
2017-12-10T11:06:06.642Z,89.87
2017-12-10T11:07:06.625Z,89.68
2017-12-10T11:08:06.598Z,89.77
2017-12-10T11:09:06.597Z,89.49
2017-12-10T11:10:06.327Z,90.34
2017-12-10T11:11:06.554Z,90.34
2017-12-10T11:12:06.549Z,89.87
2017-12-10T11:13:06.536Z,89.87
2017-12-10T11:14:06.516Z,89.01
2017-12-10T11:15:06.515Z,88.64
2017-12-10T11:16:06.494Z,89.3
2017-12-10T11:17:06.486Z,90.34
2017-12-10T11:18:06.456Z,90.15
2017-12-10T11:19:06.192Z,89.77
2017-12-10T11:20:06.433Z,89.87
2017-12-10T11:21:06.415Z,89.2
2017-12-10T11:22:06.426Z,89.58
2017-12-10T11:23:06.392Z,90.25
2017-12-10T11:24:06.416Z,90.63
2017-12-10T11:25:06.099Z,90.25
2017-12-10T11:26:06.085Z,91.29
2017-12-10T11:27:06.337Z,90.81
2017-12-10T11:28:06.327Z,90.53
2017-12-10T11:29:06.312Z,90.91
2017-12-10T11:30:06.293Z,90.44
2017-12-10T11:31:06.274Z,90.06
2017-12-10T11:32:06.275Z,90.63
2017-12-10T11:33:06.239Z,90.15
2017-12-10T11:34:06.240Z,90.15
2017-12-10T11:35:06.216Z,89.68
2017-12-10T11:36:06.204Z,90.44
2017-12-10T11:37:06.182Z,90.34
2017-12-10T11:38:06.172Z,90.63
2017-12-10T11:39:06.153Z,90.34
2017-12-10T11:40:06.150Z,89.49
2017-12-10T11:41:06.124Z,89.58
2017-12-10T11:42:06.113Z,89.11
2017-12-10T11:43:06.104Z,88.73
2017-12-10T11:44:05.833Z,89.39
2017-12-10T11:45:06.078Z,90.25
2017-12-10T11:46:06.064Z,90.44
2017-12-10T11:47:06.047Z,91.48
2017-12-10T11:48:06.043Z,91.1
2017-12-10T11:49:06.027Z,90.34
2017-12-10T11:50:06.008Z,91.1
2017-12-10T11:51:05.996Z,90.53
2017-12-10T11:52:05.968Z,90.53
2017-12-10T11:53:05.960Z,90.44
2017-12-10T11:54:05.955Z,91.1
2017-12-10T11:55:05.945Z,91.48
2017-12-10T11:56:05.918Z,91.29
2017-12-10T11:57:05.895Z,91.72
2017-12-10T11:58:05.899Z,91.76
2017-12-10T11:59:05.879Z,92.24
2017-12-10T12:00:05.855Z,91.57
2017-12-10T12:01:05.867Z,91.19
2017-12-10T12:02:05.834Z,91.48
2017-12-10T12:03:05.811Z,90.15
2017-12-10T12:04:05.795Z,89.96
2017-12-10T12:05:05.777Z,90.06
2017-12-10T12:06:05.764Z,90.81
2017-12-10T12:07:05.756Z,90.81
2017-12-10T12:08:05.747Z,90.25
2017-12-10T12:09:05.728Z,90.25
2017-12-10T12:10:05.706Z,90.15
2017-12-10T12:11:05.691Z,89.68
2017-12-10T12:12:05.679Z,90.06
2017-12-10T12:13:05.686Z,90.25
2017-12-10T12:14:05.653Z,90.44
2017-12-10T12:15:05.642Z,89.01
2017-12-10T12:16:05.618Z,89.58
2017-12-10T12:17:05.613Z,90.25
2017-12-10T12:18:05.598Z,89.68
2017-12-10T12:19:05.575Z,90.34
2017-12-10T12:20:05.573Z,89.96
2017-12-10T12:21:05.553Z,90.25
2017-12-10T12:22:05.537Z,90.53
2017-12-10T12:23:05.261Z,90.81
2017-12-10T12:24:05.559Z,90.15
2017-12-10T12:25:05.257Z,89.01
2017-12-10T12:26:05.479Z,89.2
2017-12-10T12:27:05.485Z,89.87
2017-12-10T12:28:05.455Z,90.25
2017-12-10T12:29:05.445Z,89.96
2017-12-10T12:30:05.423Z,89.77
2017-12-10T12:31:05.405Z,88.92
2017-12-10T12:32:05.391Z,89.11
2017-12-10T12:33:05.392Z,88.17
2017-12-10T12:34:05.371Z,88.64
2017-12-10T12:35:05.092Z,89.2
2017-12-10T12:36:05.340Z,89.77
2017-12-10T12:37:05.317Z,89.39
2017-12-10T12:38:05.300Z,88.64
2017-12-10T12:39:05.290Z,87.98
2017-12-10T12:40:05.028Z,88.64
2017-12-10T12:41:05.268Z,89.68
2017-12-10T12:42:05.247Z,89.01
2017-12-10T12:43:05.309Z,90.15
2017-12-10T12:44:05.283Z,89.11
2017-12-10T12:45:05.212Z,88.82
2017-12-10T12:46:05.196Z,88.35
2017-12-10T12:47:04.925Z,87.88
2017-12-10T12:48:05.162Z,88.26
2017-12-10T12:49:05.160Z,88.07
2017-12-10T12:50:05.144Z,87.88
2017-12-10T12:51:05.126Z,87.88
2017-12-10T12:52:05.155Z,88.35
2017-12-10T12:53:05.095Z,88.35
2017-12-10T12:54:04.825Z,88.54
2017-12-10T12:55:05.070Z,89.3